sensor_id;sensor_type;location;lat;lon;timestamp;temperature;humidity
73777;DHT22;62088;50.240;2.696;2023-03-23T00:01:01;12.00;83.70
73777;DHT22;62088;50.240;2.696;2023-03-23T00:03:27;12.00;83.70
73777;DHT22;62088;50.240;2.696;2023-03-23T00:05:55;11.90;83.60
73777;DHT22;62088;50.240;2.696;2023-03-23T00:08:34;12.00;83.50
73777;DHT22;62088;50.240;2.696;2023-03-23T00:11:06;12.00;83.40
73777;DHT22;62088;50.240;2.696;2023-03-23T00:13:33;12.00;83.20
73777;DHT22;62088;50.240;2.696;2023-03-23T00:15:59;12.00;83.10
73777;DHT22;62088;50.240;2.696;2023-03-23T00:18:25;12.00;83.10
73777;DHT22;62088;50.240;2.696;2023-03-23T00:20:53;12.00;83.00
73777;DHT22;62088;50.240;2.696;2023-03-23T00:23:21;12.00;82.90
73777;DHT22;62088;50.240;2.696;2023-03-23T00:25:53;12.00;82.80
73777;DHT22;62088;50.240;2.696;2023-03-23T00:28:23;12.10;82.60
73777;DHT22;62088;50.240;2.696;2023-03-23T00:31:04;12.00;82.60
73777;DHT22;62088;50.240;2.696;2023-03-23T00:33:36;12.10;82.50
73777;DHT22;62088;50.240;2.696;2023-03-23T00:36:11;12.10;82.40
73777;DHT22;62088;50.240;2.696;2023-03-23T00:38:39;12.00;82.30
73777;DHT22;62088;50.240;2.696;2023-03-23T00:41:06;12.10;82.10
73777;DHT22;62088;50.240;2.696;2023-03-23T00:43:33;12.00;82.00
73777;DHT22;62088;50.240;2.696;2023-03-23T00:46:02;12.10;81.90
73777;DHT22;62088;50.240;2.696;2023-03-23T00:48:34;12.00;81.70
73777;DHT22;62088;50.240;2.696;2023-03-23T00:51:02;12.00;81.50
73777;DHT22;62088;50.240;2.696;2023-03-23T00:53:34;12.00;81.40
73777;DHT22;62088;50.240;2.696;2023-03-23T00:56:00;12.00;81.20
73777;DHT22;62088;50.240;2.696;2023-03-23T00:58:28;12.00;81.20
73777;DHT22;62088;50.240;2.696;2023-03-23T01:00:54;12.00;81.10
73777;DHT22;62088;50.240;2.696;2023-03-23T01:03:20;12.00;81.10
73777;DHT22;62088;50.240;2.696;2023-03-23T01:05:46;12.00;81.20
73777;DHT22;62088;50.240;2.696;2023-03-23T01:08:17;11.90;81.20
73777;DHT22;62088;50.240;2.696;2023-03-23T01:10:45;11.90;81.20
73777;DHT22;62088;50.240;2.696;2023-03-23T01:13:12;12.00;81.20
73777;DHT22;62088;50.240;2.696;2023-03-23T01:15:38;11.90;81.10
73777;DHT22;62088;50.240;2.696;2023-03-23T01:18:04;11.90;81.10
73777;DHT22;62088;50.240;2.696;2023-03-23T01:20:31;11.90;81.10
73777;DHT22;62088;50.240;2.696;2023-03-23T01:23:00;11.90;81.10
73777;DHT22;62088;50.240;2.696;2023-03-23T01:25:31;11.90;81.10
73777;DHT22;62088;50.240;2.696;2023-03-23T01:27:58;11.90;81.10
73777;DHT22;62088;50.240;2.696;2023-03-23T01:30:24;11.90;81.20
73777;DHT22;62088;50.240;2.696;2023-03-23T01:32:51;11.90;81.20
73777;DHT22;62088;50.240;2.696;2023-03-23T01:35:18;11.90;81.20
73777;DHT22;62088;50.240;2.696;2023-03-23T01:37:45;11.90;81.30
73777;DHT22;62088;50.240;2.696;2023-03-23T01:40:14;11.90;81.30
73777;DHT22;62088;50.240;2.696;2023-03-23T01:42:41;11.90;81.30
73777;DHT22;62088;50.240;2.696;2023-03-23T01:47:47;11.90;81.40
73777;DHT22;62088;50.240;2.696;2023-03-23T01:50:18;11.90;81.40
73777;DHT22;62088;50.240;2.696;2023-03-23T01:52:46;11.90;81.40
73777;DHT22;62088;50.240;2.696;2023-03-23T01:55:12;11.90;81.40
73777;DHT22;62088;50.240;2.696;2023-03-23T01:57:38;11.90;81.40
73777;DHT22;62088;50.240;2.696;2023-03-23T02:00:07;11.90;81.40
73777;DHT22;62088;50.240;2.696;2023-03-23T02:02:52;11.90;81.40
73777;DHT22;62088;50.240;2.696;2023-03-23T02:05:34;11.90;81.40
73777;DHT22;62088;50.240;2.696;2023-03-23T02:08:10;11.90;81.40
73777;DHT22;62088;50.240;2.696;2023-03-23T02:10:38;11.80;81.40
73777;DHT22;62088;50.240;2.696;2023-03-23T02:13:07;11.80;81.40
73777;DHT22;62088;50.240;2.696;2023-03-23T02:26:38;11.80;81.40
73777;DHT22;62088;50.240;2.696;2023-03-23T02:35:20;11.90;81.40
73777;DHT22;62088;50.240;2.696;2023-03-23T02:37:27;11.90;81.40
73777;DHT22;62088;50.240;2.696;2023-03-23T02:40:12;11.80;81.30
73777;DHT22;62088;50.240;2.696;2023-03-23T02:42:42;11.90;81.30
73777;DHT22;62088;50.240;2.696;2023-03-23T02:45:11;11.80;81.10
73777;DHT22;62088;50.240;2.696;2023-03-23T02:47:39;11.90;81.10
73777;DHT22;62088;50.240;2.696;2023-03-23T02:50:13;11.80;80.90
73777;DHT22;62088;50.240;2.696;2023-03-23T02:52:43;11.80;80.80
73777;DHT22;62088;50.240;2.696;2023-03-23T02:55:11;11.80;80.80
73777;DHT22;62088;50.240;2.696;2023-03-23T02:57:38;11.80;80.70
73777;DHT22;62088;50.240;2.696;2023-03-23T03:00:06;11.80;80.70
73777;DHT22;62088;50.240;2.696;2023-03-23T03:02:38;11.80;80.60
73777;DHT22;62088;50.240;2.696;2023-03-23T03:08:35;11.70;80.60
73777;DHT22;62088;50.240;2.696;2023-03-23T03:11:12;11.70;80.60
73777;DHT22;62088;50.240;2.696;2023-03-23T03:16:33;11.70;80.50
73777;DHT22;62088;50.240;2.696;2023-03-23T03:19:15;11.60;80.50
73777;DHT22;62088;50.240;2.696;2023-03-23T03:21:46;11.60;80.60
73777;DHT22;62088;50.240;2.696;2023-03-23T03:24:18;11.60;80.50
73777;DHT22;62088;50.240;2.696;2023-03-23T03:26:50;11.60;80.50
73777;DHT22;62088;50.240;2.696;2023-03-23T03:29:26;11.60;80.40
73777;DHT22;62088;50.240;2.696;2023-03-23T03:31:58;11.60;80.30
73777;DHT22;62088;50.240;2.696;2023-03-23T03:34:26;11.60;80.30
73777;DHT22;62088;50.240;2.696;2023-03-23T03:36:54;11.60;80.30
73777;DHT22;62088;50.240;2.696;2023-03-23T03:39:26;11.60;80.20
73777;DHT22;62088;50.240;2.696;2023-03-23T03:41:53;11.60;80.10
73777;DHT22;62088;50.240;2.696;2023-03-23T03:44:20;11.60;80.00
73777;DHT22;62088;50.240;2.696;2023-03-23T03:46:46;11.60;80.00
73777;DHT22;62088;50.240;2.696;2023-03-23T03:49:12;11.60;80.00
73777;DHT22;62088;50.240;2.696;2023-03-23T03:51:40;11.60;80.10
73777;DHT22;62088;50.240;2.696;2023-03-23T03:54:11;11.60;80.00
73777;DHT22;62088;50.240;2.696;2023-03-23T03:56:37;11.60;80.00
73777;DHT22;62088;50.240;2.696;2023-03-23T03:59:29;11.60;80.10
73777;DHT22;62088;50.240;2.696;2023-03-23T04:02:16;11.50;80.20
73777;DHT22;62088;50.240;2.696;2023-03-23T04:04:48;11.50;80.20
73777;DHT22;62088;50.240;2.696;2023-03-23T04:07:14;11.50;80.20
73777;DHT22;62088;50.240;2.696;2023-03-23T04:09:43;11.50;80.20
73777;DHT22;62088;50.240;2.696;2023-03-23T04:12:14;11.50;80.30
73777;DHT22;62088;50.240;2.696;2023-03-23T04:14:56;11.50;80.30
73777;DHT22;62088;50.240;2.696;2023-03-23T04:17:26;11.40;80.30
73777;DHT22;62088;50.240;2.696;2023-03-23T04:19:54;11.50;80.40
73777;DHT22;62088;50.240;2.696;2023-03-23T04:22:24;11.40;80.40
73777;DHT22;62088;50.240;2.696;2023-03-23T04:25:00;11.40;80.40
73777;DHT22;62088;50.240;2.696;2023-03-23T04:27:29;11.40;80.50
73777;DHT22;62088;50.240;2.696;2023-03-23T04:29:57;11.40;80.50
73777;DHT22;62088;50.240;2.696;2023-03-23T04:32:48;11.40;80.60
73777;DHT22;62088;50.240;2.696;2023-03-23T04:35:21;11.40;80.60
73777;DHT22;62088;50.240;2.696;2023-03-23T04:37:55;11.40;80.70
73777;DHT22;62088;50.240;2.696;2023-03-23T04:40:23;11.40;80.80
73777;DHT22;62088;50.240;2.696;2023-03-23T04:43:24;11.30;80.80
73777;DHT22;62088;50.240;2.696;2023-03-23T04:45:59;11.30;80.80
73777;DHT22;62088;50.240;2.696;2023-03-23T04:48:31;11.30;80.80
73777;DHT22;62088;50.240;2.696;2023-03-23T04:51:22;11.30;80.80
73777;DHT22;62088;50.240;2.696;2023-03-23T04:53:50;11.30;80.80
73777;DHT22;62088;50.240;2.696;2023-03-23T04:56:16;11.30;80.70
73777;DHT22;62088;50.240;2.696;2023-03-23T04:58:45;11.30;80.70
73777;DHT22;62088;50.240;2.696;2023-03-23T05:01:46;11.30;80.70
73777;DHT22;62088;50.240;2.696;2023-03-23T05:04:17;11.30;80.70
73777;DHT22;62088;50.240;2.696;2023-03-23T05:06:58;11.30;80.70
73777;DHT22;62088;50.240;2.696;2023-03-23T05:09:29;11.30;80.70
73777;DHT22;62088;50.240;2.696;2023-03-23T05:11:55;11.30;80.60
73777;DHT22;62088;50.240;2.696;2023-03-23T05:14:21;11.30;80.60
73777;DHT22;62088;50.240;2.696;2023-03-23T05:16:58;11.40;80.60
73777;DHT22;62088;50.240;2.696;2023-03-23T05:19:25;11.30;80.60
73777;DHT22;62088;50.240;2.696;2023-03-23T05:21:52;11.30;80.60
73777;DHT22;62088;50.240;2.696;2023-03-23T05:24:20;11.40;80.50
73777;DHT22;62088;50.240;2.696;2023-03-23T05:26:47;11.40;80.50
73777;DHT22;62088;50.240;2.696;2023-03-23T05:29:19;11.40;80.50
73777;DHT22;62088;50.240;2.696;2023-03-23T05:31:53;11.40;80.40
73777;DHT22;62088;50.240;2.696;2023-03-23T05:34:22;11.40;80.40
73777;DHT22;62088;50.240;2.696;2023-03-23T05:36:55;11.40;80.30
73777;DHT22;62088;50.240;2.696;2023-03-23T05:39:53;11.40;80.20
73777;DHT22;62088;50.240;2.696;2023-03-23T05:42:56;11.40;79.30
73777;DHT22;62088;50.240;2.696;2023-03-23T05:45:50;11.40;78.90
73777;DHT22;62088;50.240;2.696;2023-03-23T05:48:16;11.20;79.20
73777;DHT22;62088;50.240;2.696;2023-03-23T05:50:44;11.10;79.50
73777;DHT22;62088;50.240;2.696;2023-03-23T05:53:10;11.00;80.00
73777;DHT22;62088;50.240;2.696;2023-03-23T05:55:38;10.90;80.40
73777;DHT22;62088;50.240;2.696;2023-03-23T05:58:21;10.90;80.80
73777;DHT22;62088;50.240;2.696;2023-03-23T06:00:47;10.80;81.00
73777;DHT22;62088;50.240;2.696;2023-03-23T06:03:21;10.70;81.20
73777;DHT22;62088;50.240;2.696;2023-03-23T06:06:11;10.70;81.40
73777;DHT22;62088;50.240;2.696;2023-03-23T06:08:51;10.60;81.60
73777;DHT22;62088;50.240;2.696;2023-03-23T06:11:24;10.60;81.80
73777;DHT22;62088;50.240;2.696;2023-03-23T06:14:16;10.50;82.00
73777;DHT22;62088;50.240;2.696;2023-03-23T06:16:43;10.50;82.20
73777;DHT22;62088;50.240;2.696;2023-03-23T06:19:13;10.40;82.40
73777;DHT22;62088;50.240;2.696;2023-03-23T06:21:45;10.50;82.50
73777;DHT22;62088;50.240;2.696;2023-03-23T06:24:28;10.40;82.60
73777;DHT22;62088;50.240;2.696;2023-03-23T06:26:54;10.40;82.70
73777;DHT22;62088;50.240;2.696;2023-03-23T06:29:21;10.40;82.90
73777;DHT22;62088;50.240;2.696;2023-03-23T06:31:57;10.40;83.00
73777;DHT22;62088;50.240;2.696;2023-03-23T06:34:26;10.40;83.10
73777;DHT22;62088;50.240;2.696;2023-03-23T06:37:10;10.30;83.20
73777;DHT22;62088;50.240;2.696;2023-03-23T06:40:00;10.40;83.30
73777;DHT22;62088;50.240;2.696;2023-03-23T06:42:36;10.40;83.30
73777;DHT22;62088;50.240;2.696;2023-03-23T06:45:22;10.30;83.40
73777;DHT22;62088;50.240;2.696;2023-03-23T06:47:53;10.30;83.50
73777;DHT22;62088;50.240;2.696;2023-03-23T06:50:19;10.40;83.50
73777;DHT22;62088;50.240;2.696;2023-03-23T06:52:47;10.40;83.60
73777;DHT22;62088;50.240;2.696;2023-03-23T06:55:14;10.40;83.60
73777;DHT22;62088;50.240;2.696;2023-03-23T06:57:40;10.40;83.60
73777;DHT22;62088;50.240;2.696;2023-03-23T07:00:07;10.40;83.70
73777;DHT22;62088;50.240;2.696;2023-03-23T07:02:34;10.40;83.80
73777;DHT22;62088;50.240;2.696;2023-03-23T07:05:01;10.40;83.80
73777;DHT22;62088;50.240;2.696;2023-03-23T07:07:29;10.40;83.80
73777;DHT22;62088;50.240;2.696;2023-03-23T07:10:15;10.40;83.90
73777;DHT22;62088;50.240;2.696;2023-03-23T07:12:41;10.40;84.00
73777;DHT22;62088;50.240;2.696;2023-03-23T07:15:09;10.40;84.00
73777;DHT22;62088;50.240;2.696;2023-03-23T07:17:39;10.40;84.00
73777;DHT22;62088;50.240;2.696;2023-03-23T07:20:14;10.40;84.10
73777;DHT22;62088;50.240;2.696;2023-03-23T07:22:41;10.40;84.20
73777;DHT22;62088;50.240;2.696;2023-03-23T07:25:21;10.40;84.20
73777;DHT22;62088;50.240;2.696;2023-03-23T07:27:50;10.40;84.30
73777;DHT22;62088;50.240;2.696;2023-03-23T07:30:17;10.40;84.40
73777;DHT22;62088;50.240;2.696;2023-03-23T07:32:43;10.40;84.50
73777;DHT22;62088;50.240;2.696;2023-03-23T07:35:10;10.50;84.60
73777;DHT22;62088;50.240;2.696;2023-03-23T07:37:53;10.50;84.70
73777;DHT22;62088;50.240;2.696;2023-03-23T07:40:21;10.50;84.90
73777;DHT22;62088;50.240;2.696;2023-03-23T07:42:55;10.60;85.10
73777;DHT22;62088;50.240;2.696;2023-03-23T07:45:50;10.60;85.20
73777;DHT22;62088;50.240;2.696;2023-03-23T07:48:18;10.60;85.30
73777;DHT22;62088;50.240;2.696;2023-03-23T07:50:44;10.70;85.40
73777;DHT22;62088;50.240;2.696;2023-03-23T07:53:12;10.70;85.60
73777;DHT22;62088;50.240;2.696;2023-03-23T07:55:40;10.80;85.70
73777;DHT22;62088;50.240;2.696;2023-03-23T07:58:18;10.80;85.70
73777;DHT22;62088;50.240;2.696;2023-03-23T08:00:47;10.90;85.80
73777;DHT22;62088;50.240;2.696;2023-03-23T08:03:16;10.90;85.80
73777;DHT22;62088;50.240;2.696;2023-03-23T08:05:52;10.90;85.90
73777;DHT22;62088;50.240;2.696;2023-03-23T08:08:54;11.00;85.90
73777;DHT22;62088;50.240;2.696;2023-03-23T08:11:39;11.00;85.90
73777;DHT22;62088;50.240;2.696;2023-03-23T08:14:31;11.10;86.00
73777;DHT22;62088;50.240;2.696;2023-03-23T08:17:16;11.20;86.00
73777;DHT22;62088;50.240;2.696;2023-03-23T08:20:10;11.20;86.00
73777;DHT22;62088;50.240;2.696;2023-03-23T08:22:59;11.20;86.00
73777;DHT22;62088;50.240;2.696;2023-03-23T08:25:34;11.20;86.00
73777;DHT22;62088;50.240;2.696;2023-03-23T08:28:12;11.30;86.00
73777;DHT22;62088;50.240;2.696;2023-03-23T08:31:17;11.30;86.00
73777;DHT22;62088;50.240;2.696;2023-03-23T08:33:59;11.30;85.90
73777;DHT22;62088;50.240;2.696;2023-03-23T08:36:58;11.30;85.90
73777;DHT22;62088;50.240;2.696;2023-03-23T08:39:27;11.40;86.00
73777;DHT22;62088;50.240;2.696;2023-03-23T08:41:55;11.40;86.00
73777;DHT22;62088;50.240;2.696;2023-03-23T08:44:41;11.40;86.10
73777;DHT22;62088;50.240;2.696;2023-03-23T08:47:14;11.40;86.10
73777;DHT22;62088;50.240;2.696;2023-03-23T08:50:12;11.40;86.10
73777;DHT22;62088;50.240;2.696;2023-03-23T08:52:51;11.50;86.00
73777;DHT22;62088;50.240;2.696;2023-03-23T08:55:41;11.50;86.00
73777;DHT22;62088;50.240;2.696;2023-03-23T08:58:26;11.50;86.00
73777;DHT22;62088;50.240;2.696;2023-03-23T09:01:03;11.60;86.10
73777;DHT22;62088;50.240;2.696;2023-03-23T09:03:44;11.60;86.10
73777;DHT22;62088;50.240;2.696;2023-03-23T09:06:28;11.70;86.20
73777;DHT22;62088;50.240;2.696;2023-03-23T09:08:54;11.70;86.30
73777;DHT22;62088;50.240;2.696;2023-03-23T09:11:24;11.80;86.40
73777;DHT22;62088;50.240;2.696;2023-03-23T09:13:50;11.90;86.30
73777;DHT22;62088;50.240;2.696;2023-03-23T09:16:16;11.90;86.30
73777;DHT22;62088;50.240;2.696;2023-03-23T09:18:42;11.90;86.30
73777;DHT22;62088;50.240;2.696;2023-03-23T09:21:09;12.00;86.40
73777;DHT22;62088;50.240;2.696;2023-03-23T09:23:35;12.10;86.60
73777;DHT22;62088;50.240;2.696;2023-03-23T09:26:02;12.20;86.50
73777;DHT22;62088;50.240;2.696;2023-03-23T09:28:28;12.40;86.40
73777;DHT22;62088;50.240;2.696;2023-03-23T09:30:55;12.50;86.20
73777;DHT22;62088;50.240;2.696;2023-03-23T09:33:24;12.60;86.00
73777;DHT22;62088;50.240;2.696;2023-03-23T09:35:51;12.70;85.50
73777;DHT22;62088;50.240;2.696;2023-03-23T09:38:17;12.70;85.20
73777;DHT22;62088;50.240;2.696;2023-03-23T09:40:48;12.80;85.20
73777;DHT22;62088;50.240;2.696;2023-03-23T09:43:42;12.90;85.00
73777;DHT22;62088;50.240;2.696;2023-03-23T09:48:55;13.00;84.10
73777;DHT22;62088;50.240;2.696;2023-03-23T09:51:52;13.20;83.60
73777;DHT22;62088;50.240;2.696;2023-03-23T09:54:31;13.20;83.20
73777;DHT22;62088;50.240;2.696;2023-03-23T09:57:00;13.20;82.60
73777;DHT22;62088;50.240;2.696;2023-03-23T10:02:03;13.20;82.50
73777;DHT22;62088;50.240;2.696;2023-03-23T10:04:45;13.40;82.60
73777;DHT22;62088;50.240;2.696;2023-03-23T10:07:19;13.40;82.60
73777;DHT22;62088;50.240;2.696;2023-03-23T10:09:47;13.40;82.60
73777;DHT22;62088;50.240;2.696;2023-03-23T10:12:35;13.40;82.30
73777;DHT22;62088;50.240;2.696;2023-03-23T10:15:21;13.40;81.80
73777;DHT22;62088;50.240;2.696;2023-03-23T10:20:25;13.40;81.30
73777;DHT22;62088;50.240;2.696;2023-03-23T10:23:32;13.40;81.40
73777;DHT22;62088;50.240;2.696;2023-03-23T10:28:43;13.30;80.80
73777;DHT22;62088;50.240;2.696;2023-03-23T10:31:14;13.30;80.80
73777;DHT22;62088;50.240;2.696;2023-03-23T10:33:42;13.30;80.90
73777;DHT22;62088;50.240;2.696;2023-03-23T10:36:50;13.30;81.20
73777;DHT22;62088;50.240;2.696;2023-03-23T10:39:20;13.40;81.40
73777;DHT22;62088;50.240;2.696;2023-03-23T10:41:47;13.40;81.50
73777;DHT22;62088;50.240;2.696;2023-03-23T10:44:21;13.40;82.10
73777;DHT22;62088;50.240;2.696;2023-03-23T10:46:57;13.50;82.10
73777;DHT22;62088;50.240;2.696;2023-03-23T10:54:51;14.10;82.30
73777;DHT22;62088;50.240;2.696;2023-03-23T10:57:27;14.30;81.60
73777;DHT22;62088;50.240;2.696;2023-03-23T11:02:42;14.40;79.80
73777;DHT22;62088;50.240;2.696;2023-03-23T11:05:21;14.40;79.40
73777;DHT22;62088;50.240;2.696;2023-03-23T11:07:57;14.40;79.40
73777;DHT22;62088;50.240;2.696;2023-03-23T11:10:38;14.40;79.00
73777;DHT22;62088;50.240;2.696;2023-03-23T11:13:13;14.40;79.00
73777;DHT22;62088;50.240;2.696;2023-03-23T11:15:44;14.40;79.20
73777;DHT22;62088;50.240;2.696;2023-03-23T11:18:38;14.40;79.60
73777;DHT22;62088;50.240;2.696;2023-03-23T11:21:06;14.60;79.70
73777;DHT22;62088;50.240;2.696;2023-03-23T11:28:38;14.90;76.40
73777;DHT22;62088;50.240;2.696;2023-03-23T11:31:07;15.10;76.40
73777;DHT22;62088;50.240;2.696;2023-03-23T11:34:01;15.20;76.10
73777;DHT22;62088;50.240;2.696;2023-03-23T11:36:37;15.30;75.00
73777;DHT22;62088;50.240;2.696;2023-03-23T11:41:46;15.40;75.10
73777;DHT22;62088;50.240;2.696;2023-03-23T11:44:12;15.40;74.90
73777;DHT22;62088;50.240;2.696;2023-03-23T11:49:49;15.60;74.10
73777;DHT22;62088;50.240;2.696;2023-03-23T11:52:31;15.70;73.90
73777;DHT22;62088;50.240;2.696;2023-03-23T11:55:13;15.60;73.90
73777;DHT22;62088;50.240;2.696;2023-03-23T11:57:40;15.70;73.50
73777;DHT22;62088;50.240;2.696;2023-03-23T12:00:21;15.60;73.20
73777;DHT22;62088;50.240;2.696;2023-03-23T12:02:59;15.60;73.60
73777;DHT22;62088;50.240;2.696;2023-03-23T12:06:06;15.70;73.60
73777;DHT22;62088;50.240;2.696;2023-03-23T12:08:52;15.80;73.70
73777;DHT22;62088;50.240;2.696;2023-03-23T12:11:37;15.80;73.90
73777;DHT22;62088;50.240;2.696;2023-03-23T12:23:11;16.20;72.50
73777;DHT22;62088;50.240;2.696;2023-03-23T12:25:59;16.20;71.80
73777;DHT22;62088;50.240;2.696;2023-03-23T12:28:53;16.20;71.70
73777;DHT22;62088;50.240;2.696;2023-03-23T12:48:44;16.30;68.90
73777;DHT22;62088;50.240;2.696;2023-03-23T12:51:27;16.10;70.40
73777;DHT22;62088;50.240;2.696;2023-03-23T12:56:51;15.80;75.00
73777;DHT22;62088;50.240;2.696;2023-03-23T12:59:25;15.70;76.00
73777;DHT22;62088;50.240;2.696;2023-03-23T13:02:43;15.60;77.00
73777;DHT22;62088;50.240;2.696;2023-03-23T13:04:47;15.60;77.30
73777;DHT22;62088;50.240;2.696;2023-03-23T13:07:24;15.70;77.40
73777;DHT22;62088;50.240;2.696;2023-03-23T13:12:42;15.80;77.30
73777;DHT22;62088;50.240;2.696;2023-03-23T13:21:23;16.00;75.50
73777;DHT22;62088;50.240;2.696;2023-03-23T13:23:46;16.00;75.30
73777;DHT22;62088;50.240;2.696;2023-03-23T13:26:22;16.00;74.50
73777;DHT22;62088;50.240;2.696;2023-03-23T13:31:31;16.00;74.50
73777;DHT22;62088;50.240;2.696;2023-03-23T13:37:05;16.10;72.90
73777;DHT22;62088;50.240;2.696;2023-03-23T13:50:02;16.00;71.20
73777;DHT22;62088;50.240;2.696;2023-03-23T13:55:18;15.70;72.50
73777;DHT22;62088;50.240;2.696;2023-03-23T14:03:13;15.30;74.90
73777;DHT22;62088;50.240;2.696;2023-03-23T14:05:40;15.20;75.50
73777;DHT22;62088;50.240;2.696;2023-03-23T14:08:24;15.30;76.00
73777;DHT22;62088;50.240;2.696;2023-03-23T14:10:54;15.30;76.20
73777;DHT22;62088;50.240;2.696;2023-03-23T14:16:03;15.40;74.70
73777;DHT22;62088;50.240;2.696;2023-03-23T14:18:38;15.40;74.70
73777;DHT22;62088;50.240;2.696;2023-03-23T14:21:05;15.40;73.40
73777;DHT22;62088;50.240;2.696;2023-03-23T14:23:33;15.50;73.40
73777;DHT22;62088;50.240;2.696;2023-03-23T14:26:02;15.50;73.10
73777;DHT22;62088;50.240;2.696;2023-03-23T14:28:42;15.50;72.90
73777;DHT22;62088;50.240;2.696;2023-03-23T14:31:17;15.50;73.20
73777;DHT22;62088;50.240;2.696;2023-03-23T14:33:43;15.50;73.10
73777;DHT22;62088;50.240;2.696;2023-03-23T14:36:10;15.60;73.90
73777;DHT22;62088;50.240;2.696;2023-03-23T14:38:36;15.70;73.80
73777;DHT22;62088;50.240;2.696;2023-03-23T14:41:05;15.70;73.30
73777;DHT22;62088;50.240;2.696;2023-03-23T14:43:33;15.80;72.70
73777;DHT22;62088;50.240;2.696;2023-03-23T14:46:02;15.80;72.40
73777;DHT22;62088;50.240;2.696;2023-03-23T14:48:30;15.80;72.70
73777;DHT22;62088;50.240;2.696;2023-03-23T14:50:58;15.80;72.80
73777;DHT22;62088;50.240;2.696;2023-03-23T14:53:31;15.70;72.50
73777;DHT22;62088;50.240;2.696;2023-03-23T14:56:01;15.70;72.30
73777;DHT22;62088;50.240;2.696;2023-03-23T14:58:29;15.70;72.50
73777;DHT22;62088;50.240;2.696;2023-03-23T15:01:11;15.60;72.40
73777;DHT22;62088;50.240;2.696;2023-03-23T15:03:52;15.60;72.80
73777;DHT22;62088;50.240;2.696;2023-03-23T15:06:21;15.50;73.00
73777;DHT22;62088;50.240;2.696;2023-03-23T15:08:50;15.50;73.10
73777;DHT22;62088;50.240;2.696;2023-03-23T15:11:31;15.50;73.30
73777;DHT22;62088;50.240;2.696;2023-03-23T15:14:10;15.50;73.70
73777;DHT22;62088;50.240;2.696;2023-03-23T15:16:46;15.50;73.80
73777;DHT22;62088;50.240;2.696;2023-03-23T15:19:33;15.50;73.70
73777;DHT22;62088;50.240;2.696;2023-03-23T15:24:50;15.50;73.20
73777;DHT22;62088;50.240;2.696;2023-03-23T15:27:26;15.50;73.50
73777;DHT22;62088;50.240;2.696;2023-03-23T15:29:57;15.60;73.40
73777;DHT22;62088;50.240;2.696;2023-03-23T15:34:51;15.70;73.50
73777;DHT22;62088;50.240;2.696;2023-03-23T15:37:24;15.80;72.60
73777;DHT22;62088;50.240;2.696;2023-03-23T15:39:51;15.90;71.70
73777;DHT22;62088;50.240;2.696;2023-03-23T15:42:27;15.90;70.80
73777;DHT22;62088;50.240;2.696;2023-03-23T15:50:20;15.90;70.50
73777;DHT22;62088;50.240;2.696;2023-03-23T15:52:57;15.90;71.10
73777;DHT22;62088;50.240;2.696;2023-03-23T15:55:25;15.90;71.20
73777;DHT22;62088;50.240;2.696;2023-03-23T15:57:53;15.90;71.10
73777;DHT22;62088;50.240;2.696;2023-03-23T16:00:23;15.90;71.30
73777;DHT22;62088;50.240;2.696;2023-03-23T16:02:57;15.90;71.10
73777;DHT22;62088;50.240;2.696;2023-03-23T16:05:26;15.90;70.50
73777;DHT22;62088;50.240;2.696;2023-03-23T16:07:54;15.80;70.50
73777;DHT22;62088;50.240;2.696;2023-03-23T16:10:23;15.80;70.80
73777;DHT22;62088;50.240;2.696;2023-03-23T16:12:50;15.70;70.90
73777;DHT22;62088;50.240;2.696;2023-03-23T16:15:18;15.80;70.60
73777;DHT22;62088;50.240;2.696;2023-03-23T16:17:45;15.70;71.00
73777;DHT22;62088;50.240;2.696;2023-03-23T16:20:18;15.60;70.60
73777;DHT22;62088;50.240;2.696;2023-03-23T16:22:47;15.60;70.60
73777;DHT22;62088;50.240;2.696;2023-03-23T16:25:15;15.50;70.60
73777;DHT22;62088;50.240;2.696;2023-03-23T16:27:42;15.50;70.90
73777;DHT22;62088;50.240;2.696;2023-03-23T16:30:27;15.50;70.90
73777;DHT22;62088;50.240;2.696;2023-03-23T16:32:55;15.40;71.10
73777;DHT22;62088;50.240;2.696;2023-03-23T16:35:24;15.40;71.00
73777;DHT22;62088;50.240;2.696;2023-03-23T16:37:53;15.30;71.40
73777;DHT22;62088;50.240;2.696;2023-03-23T16:40:35;15.30;71.40
73777;DHT22;62088;50.240;2.696;2023-03-23T16:43:02;15.30;71.70
73777;DHT22;62088;50.240;2.696;2023-03-23T16:45:36;15.20;72.00
73777;DHT22;62088;50.240;2.696;2023-03-23T16:48:04;15.20;72.00
73777;DHT22;62088;50.240;2.696;2023-03-23T16:50:32;15.10;71.50
73777;DHT22;62088;50.240;2.696;2023-03-23T16:52:59;15.10;71.50
73777;DHT22;62088;50.240;2.696;2023-03-23T16:55:27;15.10;71.60
73777;DHT22;62088;50.240;2.696;2023-03-23T16:57:54;15.00;71.60
73777;DHT22;62088;50.240;2.696;2023-03-23T17:00:39;15.00;71.70
73777;DHT22;62088;50.240;2.696;2023-03-23T17:03:06;15.00;71.40
73777;DHT22;62088;50.240;2.696;2023-03-23T17:05:35;15.00;71.40
73777;DHT22;62088;50.240;2.696;2023-03-23T17:08:03;14.90;71.60
73777;DHT22;62088;50.240;2.696;2023-03-23T17:10:30;14.90;71.70
73777;DHT22;62088;50.240;2.696;2023-03-23T17:12:57;14.90;71.50
73777;DHT22;62088;50.240;2.696;2023-03-23T17:15:25;14.90;71.40
73777;DHT22;62088;50.240;2.696;2023-03-23T17:17:52;14.80;71.70
73777;DHT22;62088;50.240;2.696;2023-03-23T17:20:21;14.80;71.90
73777;DHT22;62088;50.240;2.696;2023-03-23T17:22:49;14.80;72.50
73777;DHT22;62088;50.240;2.696;2023-03-23T17:25:16;14.70;72.60
73777;DHT22;62088;50.240;2.696;2023-03-23T17:27:43;14.70;73.40
73777;DHT22;62088;50.240;2.696;2023-03-23T17:30:11;14.60;73.50
73777;DHT22;62088;50.240;2.696;2023-03-23T17:32:39;14.50;73.70
73777;DHT22;62088;50.240;2.696;2023-03-23T17:35:06;14.50;74.10
73777;DHT22;62088;50.240;2.696;2023-03-23T17:37:34;14.40;74.30
73777;DHT22;62088;50.240;2.696;2023-03-23T17:40:02;14.40;74.50
73777;DHT22;62088;50.240;2.696;2023-03-23T17:42:30;14.40;74.80
73777;DHT22;62088;50.240;2.696;2023-03-23T17:44:57;14.30;74.80
73777;DHT22;62088;50.240;2.696;2023-03-23T17:47:24;14.20;74.40
73777;DHT22;62088;50.240;2.696;2023-03-23T17:49:51;14.20;74.60
73777;DHT22;62088;50.240;2.696;2023-03-23T17:52:18;14.20;74.70
73777;DHT22;62088;50.240;2.696;2023-03-23T17:54:45;14.10;74.90
73777;DHT22;62088;50.240;2.696;2023-03-23T17:57:12;14.10;74.80
73777;DHT22;62088;50.240;2.696;2023-03-23T17:59:39;14.10;75.00
73777;DHT22;62088;50.240;2.696;2023-03-23T18:02:07;14.10;74.90
73777;DHT22;62088;50.240;2.696;2023-03-23T18:04:34;14.00;75.00
73777;DHT22;62088;50.240;2.696;2023-03-23T18:07:01;14.00;75.10
73777;DHT22;62088;50.240;2.696;2023-03-23T18:09:28;14.00;75.10
73777;DHT22;62088;50.240;2.696;2023-03-23T18:11:55;14.00;75.20
73777;DHT22;62088;50.240;2.696;2023-03-23T18:14:22;13.90;75.30
73777;DHT22;62088;50.240;2.696;2023-03-23T18:16:50;13.90;75.30